createdAt,value
2023-03-15T00:00:41.000Z,82.9
2023-03-15T00:01:57.000Z,82.5
2023-03-15T00:03:13.000Z,82.5
2023-03-15T00:04:30.000Z,82.8
2023-03-15T00:05:46.000Z,82
2023-03-15T00:07:02.000Z,83.3
2023-03-15T00:08:18.000Z,82.9
2023-03-15T00:09:34.000Z,83.8
2023-03-15T00:12:05.000Z,82.8
2023-03-15T00:13:21.000Z,81.5
2023-03-15T00:14:38.000Z,82.5
2023-03-15T00:15:54.000Z,82.8
2023-03-15T00:17:10.000Z,83.2
2023-03-15T00:18:26.000Z,82.4
2023-03-15T00:19:42.000Z,81.9
2023-03-15T00:22:13.000Z,82.3
2023-03-15T00:23:29.000Z,81
2023-03-15T00:24:44.000Z,81.7
2023-03-15T00:26:00.000Z,81.9
2023-03-15T00:27:16.000Z,81.6
2023-03-15T00:28:32.000Z,82.3
2023-03-15T00:29:47.000Z,82.1
2023-03-15T00:31:02.000Z,82
2023-03-15T00:32:19.000Z,81.4
2023-03-15T00:33:35.000Z,81.3
2023-03-15T00:34:51.000Z,81.5
2023-03-15T00:36:07.000Z,80.7
2023-03-15T00:37:23.000Z,81.4
2023-03-15T00:38:39.000Z,80.8
2023-03-15T00:39:55.000Z,79.5
2023-03-15T00:41:11.000Z,79.6
2023-03-15T00:42:28.000Z,79
2023-03-15T00:43:44.000Z,79.3
2023-03-15T00:45:00.000Z,79.8
2023-03-15T00:46:16.000Z,78.9
2023-03-15T00:47:31.000Z,77.8
2023-03-15T00:48:47.000Z,76.7
2023-03-15T00:50:03.000Z,77.2
2023-03-15T00:51:20.000Z,76.9
2023-03-15T00:52:36.000Z,76.2
2023-03-15T00:53:52.000Z,75.4
2023-03-15T00:55:08.000Z,74.4
2023-03-15T00:56:24.000Z,74.4
2023-03-15T00:57:40.000Z,73.4
2023-03-15T00:58:56.000Z,74.6
2023-03-15T01:00:13.000Z,73.4
2023-03-15T01:01:29.000Z,73.5
2023-03-15T01:02:45.000Z,73.5
2023-03-15T01:04:00.000Z,73.3
2023-03-15T01:05:16.000Z,74
2023-03-15T01:06:31.000Z,73.3
2023-03-15T01:07:46.000Z,73.8
2023-03-15T01:09:02.000Z,74.1
2023-03-15T01:10:17.000Z,73.6
2023-03-15T01:11:33.000Z,73.8
2023-03-15T01:12:49.000Z,73.8
2023-03-15T01:14:05.000Z,74.2
2023-03-15T01:15:20.000Z,74.2
2023-03-15T01:16:36.000Z,74.7
2023-03-15T01:17:53.000Z,75.4
2023-03-15T01:19:10.000Z,75.3
2023-03-15T01:20:26.000Z,75.2
2023-03-15T01:21:42.000Z,75.4
2023-03-15T01:22:58.000Z,75.8
2023-03-15T01:24:14.000Z,76.4
2023-03-15T01:25:30.000Z,76.8
2023-03-15T01:26:45.000Z,76.8
2023-03-15T01:28:02.000Z,77
2023-03-15T01:29:18.000Z,77.1
2023-03-15T01:30:34.000Z,77.4
2023-03-15T01:31:50.000Z,76.8
2023-03-15T01:33:06.000Z,76.9
2023-03-15T01:34:22.000Z,77.5
2023-03-15T01:35:37.000Z,77.1
2023-03-15T01:36:53.000Z,77
2023-03-15T01:38:08.000Z,76.8
2023-03-15T01:39:23.000Z,76.7
2023-03-15T01:40:39.000Z,76.5
2023-03-15T01:41:55.000Z,76.6
2023-03-15T01:43:11.000Z,76.5
2023-03-15T01:44:27.000Z,76.8
2023-03-15T01:45:43.000Z,76.8
2023-03-15T01:47:00.000Z,76.9
2023-03-15T01:48:16.000Z,77
2023-03-15T01:49:32.000Z,77.1
2023-03-15T01:50:48.000Z,77.4
2023-03-15T01:52:04.000Z,77.5
2023-03-15T01:53:20.000Z,77.8
2023-03-15T01:54:36.000Z,77.4
2023-03-15T01:55:52.000Z,77.8
2023-03-15T01:57:08.000Z,78
2023-03-15T01:58:24.000Z,78.2
2023-03-15T01:59:40.000Z,78.2
2023-03-15T02:00:56.000Z,78.1
2023-03-15T02:02:12.000Z,77.8
2023-03-15T02:03:28.000Z,77.8
2023-03-15T02:04:44.000Z,77.8
2023-03-15T02:05:59.000Z,78.3
2023-03-15T02:07:14.000Z,78.3
2023-03-15T02:08:29.000Z,78.3
2023-03-15T02:09:45.000Z,78.3
2023-03-15T02:11:01.000Z,78.3
2023-03-15T02:12:17.000Z,78
2023-03-15T02:13:33.000Z,77.9
2023-03-15T02:14:50.000Z,78.1
2023-03-15T02:16:06.000Z,78.3
2023-03-15T02:17:22.000Z,78.3
2023-03-15T02:18:38.000Z,78.8
2023-03-15T02:19:54.000Z,78.3
2023-03-15T02:21:10.000Z,78
2023-03-15T02:22:26.000Z,78.3
2023-03-15T02:23:43.000Z,78
2023-03-15T02:24:58.000Z,78.3
2023-03-15T02:26:14.000Z,78.2
2023-03-15T02:27:30.000Z,78.5
2023-03-15T02:28:46.000Z,78.3
2023-03-15T02:30:02.000Z,78.6
2023-03-15T02:31:18.000Z,78.6
2023-03-15T02:32:35.000Z,79.3
2023-03-15T02:33:50.000Z,80
2023-03-15T02:35:05.000Z,80.3
2023-03-15T02:36:20.000Z,79.6
2023-03-15T02:37:35.000Z,79.3
2023-03-15T02:38:51.000Z,79.7
2023-03-15T02:40:07.000Z,80
2023-03-15T02:41:24.000Z,79.9
2023-03-15T02:42:40.000Z,79.8
2023-03-15T02:43:56.000Z,79.7
2023-03-15T02:45:12.000Z,79.4
2023-03-15T02:46:28.000Z,79.8
2023-03-15T02:47:44.000Z,80
2023-03-15T02:49:00.000Z,79.2
2023-03-15T02:50:16.000Z,78.6
2023-03-15T02:51:33.000Z,77.8
2023-03-15T02:52:49.000Z,77.5
2023-03-15T02:54:04.000Z,78.5
2023-03-15T02:55:20.000Z,78.3
2023-03-15T02:56:36.000Z,77.7
2023-03-15T02:57:52.000Z,78
2023-03-15T02:59:08.000Z,77.6
2023-03-15T03:00:25.000Z,77.1
2023-03-15T03:01:41.000Z,77
2023-03-15T03:02:56.000Z,76.7
2023-03-15T03:04:11.000Z,76
2023-03-15T03:05:27.000Z,76
2023-03-15T03:06:42.000Z,76.6
2023-03-15T03:07:57.000Z,77.4
2023-03-15T03:09:14.000Z,78.6
2023-03-15T03:10:30.000Z,77.7
2023-03-15T03:11:46.000Z,77.5
2023-03-15T03:13:02.000Z,76.6
2023-03-15T03:14:18.000Z,77.1
2023-03-15T03:15:34.000Z,76.8
2023-03-15T03:16:50.000Z,76.6
2023-03-15T03:18:05.000Z,76
2023-03-15T03:19:22.000Z,75.1
2023-03-15T03:20:38.000Z,75.7
2023-03-15T03:21:54.000Z,76
2023-03-15T03:23:10.000Z,75.6
2023-03-15T03:24:26.000Z,74.7
2023-03-15T03:25:42.000Z,73.6
2023-03-15T03:26:58.000Z,73.7
2023-03-15T03:28:15.000Z,72.3
2023-03-15T03:29:31.000Z,72.5
2023-03-15T03:30:47.000Z,72.7
2023-03-15T03:32:03.000Z,72.8
2023-03-15T03:33:18.000Z,73.2
2023-03-15T03:34:33.000Z,73.5
2023-03-15T03:35:48.000Z,73.6
2023-03-15T03:37:04.000Z,73.9
2023-03-15T03:38:20.000Z,74.2
2023-03-15T03:39:36.000Z,74
2023-03-15T03:40:52.000Z,74.5
2023-03-15T03:42:08.000Z,74.5
2023-03-15T03:43:24.000Z,74.5
2023-03-15T03:44:40.000Z,74.5
2023-03-15T03:45:56.000Z,74.1
2023-03-15T03:47:13.000Z,74.1
2023-03-15T03:48:29.000Z,74.5
2023-03-15T03:49:45.000Z,74
2023-03-15T03:51:01.000Z,73.7
2023-03-15T03:52:17.000Z,74.5
2023-03-15T03:53:32.000Z,74.6
2023-03-15T03:54:48.000Z,74.5
2023-03-15T03:56:05.000Z,74.5
2023-03-15T03:57:21.000Z,74.8
2023-03-15T03:58:37.000Z,75.7
2023-03-15T03:59:53.000Z,75.9
2023-03-15T04:01:09.000Z,75.9
2023-03-15T04:02:24.000Z,76
2023-03-15T04:03:39.000Z,75.5
2023-03-15T04:04:56.000Z,76
2023-03-15T04:06:11.000Z,75.7
2023-03-15T04:07:26.000Z,75.4
2023-03-15T04:08:42.000Z,75.4
2023-03-15T04:09:58.000Z,75.7
2023-03-15T04:11:14.000Z,76
2023-03-15T04:12:30.000Z,76.3
2023-03-15T04:13:47.000Z,76.8
2023-03-15T04:15:03.000Z,76.3
2023-03-15T04:16:19.000Z,76.7
2023-03-15T04:17:35.000Z,76.9
2023-03-15T04:18:51.000Z,76.8
2023-03-15T04:20:07.000Z,77.2
2023-03-15T04:21:23.000Z,77.2
2023-03-15T04:22:39.000Z,77.3
2023-03-15T04:23:55.000Z,78.1
2023-03-15T04:25:11.000Z,77.9
2023-03-15T04:26:27.000Z,78.3
2023-03-15T04:27:43.000Z,78.6
2023-03-15T04:28:59.000Z,78.8
2023-03-15T04:30:15.000Z,78.8
2023-03-15T04:31:31.000Z,79.2
2023-03-15T04:32:47.000Z,79.2
2023-03-15T04:34:02.000Z,79.7
2023-03-15T04:35:18.000Z,79.5
2023-03-15T04:36:33.000Z,79.3
2023-03-15T04:37:48.000Z,79.1
2023-03-15T04:39:04.000Z,79.1
2023-03-15T04:40:20.000Z,79.3
2023-03-15T04:41:37.000Z,79.7
2023-03-15T04:42:53.000Z,80.2
2023-03-15T04:44:09.000Z,80.9
2023-03-15T04:45:25.000Z,81.5
2023-03-15T04:46:41.000Z,82
2023-03-15T04:47:57.000Z,82.1
2023-03-15T04:49:13.000Z,82.5
2023-03-15T04:50:29.000Z,82.9
2023-03-15T04:51:46.000Z,83
2023-03-15T04:53:02.000Z,83.1
2023-03-15T04:54:17.000Z,83
2023-03-15T04:55:33.000Z,81.9
2023-03-15T04:56:49.000Z,81.6
2023-03-15T04:58:05.000Z,81.4
2023-03-15T04:59:21.000Z,80.9
2023-03-15T05:00:38.000Z,80.6
2023-03-15T05:01:54.000Z,80.3
2023-03-15T05:03:09.000Z,80.3
2023-03-15T05:04:24.000Z,80.5
2023-03-15T05:05:40.000Z,80.5
2023-03-15T05:06:55.000Z,80.3
2023-03-15T05:08:10.000Z,80
2023-03-15T05:09:27.000Z,79.7
2023-03-15T05:10:43.000Z,79.7
2023-03-15T05:11:59.000Z,79.7
2023-03-15T05:13:15.000Z,79.6
2023-03-15T05:14:31.000Z,80.3
2023-03-15T05:15:47.000Z,80.5
2023-03-15T05:17:03.000Z,80.3
2023-03-15T05:18:19.000Z,80.2
2023-03-15T05:19:36.000Z,80.5
2023-03-15T05:20:52.000Z,80.2
2023-03-15T05:22:08.000Z,80.4
2023-03-15T05:23:24.000Z,80.7
2023-03-15T05:24:39.000Z,80.6
2023-03-15T05:25:55.000Z,80.7
2023-03-15T05:27:11.000Z,80.8
2023-03-15T05:28:28.000Z,81.2
2023-03-15T05:29:44.000Z,81.7
2023-03-15T05:31:00.000Z,81.7
2023-03-15T05:32:16.000Z,81.8
2023-03-15T05:33:31.000Z,82.1
2023-03-15T05:34:46.000Z,82.1
2023-03-15T05:36:02.000Z,82.2
2023-03-15T05:37:19.000Z,82.1
2023-03-15T05:38:34.000Z,82.3
2023-03-15T05:39:49.000Z,82.1
2023-03-15T05:41:05.000Z,81.8
2023-03-15T05:42:21.000Z,81
2023-03-15T05:43:37.000Z,80.9
2023-03-15T05:44:53.000Z,81.4
2023-03-15T05:46:09.000Z,81.6
2023-03-15T05:47:26.000Z,81.1
2023-03-15T05:49:58.000Z,81
2023-03-15T05:51:14.000Z,81.3
2023-03-15T05:52:30.000Z,80.7
2023-03-15T05:53:46.000Z,80.7
2023-03-15T05:55:02.000Z,80.8
2023-03-15T05:56:18.000Z,81
2023-03-15T05:57:34.000Z,80.5
2023-03-15T05:58:50.000Z,80.8
2023-03-15T06:00:06.000Z,80.3
2023-03-15T06:01:22.000Z,80.7
2023-03-15T06:02:38.000Z,80.5
2023-03-15T06:03:54.000Z,80.3
2023-03-15T06:05:11.000Z,80.5
2023-03-15T06:06:26.000Z,80.2
2023-03-15T06:07:41.000Z,79.9
2023-03-15T06:08:57.000Z,79.9
2023-03-15T06:10:12.000Z,80
2023-03-15T06:11:27.000Z,79.9
2023-03-15T06:12:43.000Z,79
2023-03-15T06:14:00.000Z,79
2023-03-15T06:15:16.000Z,79.3
2023-03-15T06:16:32.000Z,78.9
2023-03-15T06:17:48.000Z,78.4
2023-03-15T06:19:04.000Z,78.1
2023-03-15T06:20:20.000Z,77.9
2023-03-15T06:21:36.000Z,77.9
2023-03-15T06:22:52.000Z,77.1
2023-03-15T06:24:09.000Z,77
2023-03-15T06:25:25.000Z,77.3
2023-03-15T06:26:41.000Z,77.1
2023-03-15T06:27:56.000Z,77
2023-03-15T06:29:12.000Z,76.1
2023-03-15T06:30:28.000Z,76.2
2023-03-15T06:31:44.000Z,75.7
2023-03-15T06:33:01.000Z,75.8
2023-03-15T06:34:17.000Z,75.5
2023-03-15T06:35:33.000Z,74.9
2023-03-15T06:36:48.000Z,74
2023-03-15T06:38:03.000Z,72.6
2023-03-15T06:39:18.000Z,71.3
2023-03-15T06:40:33.000Z,69
2023-03-15T06:41:50.000Z,67.5
2023-03-15T06:43:06.000Z,67.2
2023-03-15T06:44:22.000Z,66
2023-03-15T06:45:38.000Z,64.6
2023-03-15T06:46:54.000Z,64.3
2023-03-15T06:48:10.000Z,64.8
2023-03-15T06:49:26.000Z,66.2
2023-03-15T06:50:42.000Z,65.7
2023-03-15T06:51:59.000Z,66
2023-03-15T06:53:15.000Z,64.9
2023-03-15T06:54:31.000Z,63
2023-03-15T06:55:47.000Z,60.3
2023-03-15T06:57:02.000Z,57.5
2023-03-15T06:58:18.000Z,56.2
2023-03-15T06:59:34.000Z,56
2023-03-15T07:00:51.000Z,57.6
2023-03-15T07:02:07.000Z,59
2023-03-15T07:03:23.000Z,59.1
2023-03-15T07:04:39.000Z,60.4
2023-03-15T07:05:54.000Z,60.9
2023-03-15T07:07:09.000Z,61.5
2023-03-15T07:08:24.000Z,61.7
2023-03-15T07:09:40.000Z,61.6
2023-03-15T07:10:56.000Z,60.5
2023-03-15T07:12:12.000Z,60.6
2023-03-15T07:13:28.000Z,59.9
2023-03-15T07:14:44.000Z,59.9
2023-03-15T07:16:00.000Z,60.9
2023-03-15T07:17:16.000Z,61.7
2023-03-15T07:18:32.000Z,62
2023-03-15T07:19:49.000Z,62.3
2023-03-15T07:21:05.000Z,61.8
2023-03-15T07:22:21.000Z,61.7
2023-03-15T07:23:37.000Z,60
2023-03-15T07:24:53.000Z,58.7
2023-03-15T07:26:08.000Z,56.8
2023-03-15T07:27:24.000Z,56.5
2023-03-15T07:28:41.000Z,56.9
2023-03-15T07:29:57.000Z,57.3
2023-03-15T07:31:13.000Z,58.3
2023-03-15T07:32:28.000Z,58.2
2023-03-15T07:33:44.000Z,58.1
2023-03-15T07:34:59.000Z,56.1
2023-03-15T07:36:14.000Z,53.8
2023-03-15T07:37:31.000Z,51.9
2023-03-15T07:38:47.000Z,52
2023-03-15T07:40:03.000Z,52.4
2023-03-15T07:41:19.000Z,53.2
2023-03-15T07:42:35.000Z,54.5
2023-03-15T07:43:51.000Z,55.4
2023-03-15T07:45:07.000Z,55.1
2023-03-15T07:46:23.000Z,55.3
2023-03-15T07:47:40.000Z,56.6
2023-03-15T07:48:56.000Z,56.6
2023-03-15T07:50:12.000Z,57.2
2023-03-15T07:51:28.000Z,57.5
2023-03-15T07:52:43.000Z,57.2
2023-03-15T07:53:59.000Z,56.4
2023-03-15T07:55:15.000Z,56.9
2023-03-15T07:56:32.000Z,56.4
2023-03-15T07:57:48.000Z,56.4
2023-03-15T07:59:04.000Z,58.1
2023-03-15T08:00:20.000Z,57.3
2023-03-15T08:01:36.000Z,57.3
2023-03-15T08:02:51.737Z,55.8
2023-03-15T08:04:06.000Z,55.5
2023-03-15T08:05:23.000Z,53.3
2023-03-15T08:06:38.000Z,51.5
2023-03-15T08:07:53.000Z,50.4
2023-03-15T08:09:09.000Z,49.4
2023-03-15T08:10:25.000Z,47.6
2023-03-15T08:11:41.000Z,46.7
2023-03-15T08:12:56.000Z,47.2
2023-03-15T08:14:12.000Z,47.3
2023-03-15T08:15:28.000Z,47.1
2023-03-15T08:16:44.000Z,47.6
2023-03-15T08:18:00.000Z,48.7
2023-03-15T08:19:16.000Z,49.2
2023-03-15T08:20:32.000Z,50.1
2023-03-15T08:21:48.000Z,50
2023-03-15T08:23:04.000Z,49.9
2023-03-15T08:24:21.000Z,49.8
2023-03-15T08:25:37.000Z,49.3
2023-03-15T08:26:53.000Z,49
2023-03-15T08:28:09.000Z,47.8
2023-03-15T08:29:25.000Z,45.2
2023-03-15T08:30:40.000Z,42.6
2023-03-15T08:31:56.000Z,41.5
2023-03-15T08:33:13.000Z,40.9
2023-03-15T08:34:29.000Z,40.8
2023-03-15T08:35:45.000Z,41.4
2023-03-15T08:37:01.000Z,42.3
2023-03-15T08:38:17.000Z,42.4
2023-03-15T08:39:32.000Z,42
2023-03-15T08:40:47.000Z,44.2
2023-03-15T08:42:03.000Z,44.3
2023-03-15T08:43:18.000Z,44.3
2023-03-15T08:44:34.000Z,43.8
2023-03-15T08:45:50.000Z,43.6
2023-03-15T08:47:06.000Z,41.5
2023-03-15T08:48:22.000Z,38.9
2023-03-15T08:49:38.000Z,38.6
2023-03-15T08:50:54.000Z,39.3
2023-03-15T08:52:11.000Z,40.3
2023-03-15T08:53:27.000Z,39.3
2023-03-15T08:54:43.000Z,38
2023-03-15T08:55:59.000Z,37.3
2023-03-15T08:57:15.000Z,38.3
2023-03-15T08:58:31.000Z,37.8
2023-03-15T08:59:46.000Z,37.2
2023-03-15T09:01:03.000Z,36.3
2023-03-15T09:02:19.000Z,36.4
2023-03-15T09:03:35.000Z,35.3
2023-03-15T09:04:51.000Z,35.4
2023-03-15T09:06:07.000Z,34.4
2023-03-15T09:07:23.000Z,33.4
2023-03-15T09:08:38.000Z,32.3
2023-03-15T09:09:53.000Z,32.1
2023-03-15T09:11:10.000Z,33.4
2023-03-15T09:12:26.000Z,34
2023-03-15T09:13:42.000Z,34.7
2023-03-15T09:14:58.000Z,35.3
2023-03-15T09:16:14.000Z,36.2
2023-03-15T09:17:30.000Z,36
2023-03-15T09:18:46.000Z,36.1
2023-03-15T09:20:03.000Z,34.4
2023-03-15T09:21:19.000Z,33.5
2023-03-15T09:22:35.000Z,33.2
2023-03-15T09:23:51.000Z,33.1
2023-03-15T09:25:07.000Z,32.9
2023-03-15T09:26:22.000Z,31
2023-03-15T09:27:38.000Z,29.9
2023-03-15T09:28:54.000Z,30
2023-03-15T09:30:11.000Z,29.4
2023-03-15T09:31:27.000Z,29.2
2023-03-15T09:32:43.000Z,28.1
2023-03-15T09:33:59.000Z,28
2023-03-15T09:35:14.000Z,28.3
2023-03-15T09:36:29.000Z,28
2023-03-15T09:37:44.000Z,27.4
2023-03-15T09:39:00.000Z,26.7
2023-03-15T09:40:16.000Z,25.1
2023-03-15T09:41:32.000Z,25.6
2023-03-15T09:42:48.000Z,25.8
2023-03-15T09:44:04.000Z,25.5
2023-03-15T09:45:20.000Z,25.1
2023-03-15T09:46:36.000Z,24.6
2023-03-15T09:47:53.000Z,23.3
2023-03-15T09:49:09.000Z,23.6
2023-03-15T09:50:25.000Z,22.8
2023-03-15T09:51:41.000Z,21.8
2023-03-15T09:52:57.000Z,22.4
2023-03-15T09:54:13.000Z,23.1
2023-03-15T09:55:28.000Z,22.5
2023-03-15T09:56:44.000Z,21.3
2023-03-15T09:58:01.000Z,20.8
2023-03-15T09:59:17.000Z,21
2023-03-15T10:00:33.000Z,20.9
2023-03-15T10:01:49.000Z,20.4
2023-03-15T10:03:05.000Z,19.6
2023-03-15T10:04:20.000Z,20
2023-03-15T10:05:35.000Z,19.3
2023-03-15T10:06:52.000Z,19.6
2023-03-15T10:08:07.000Z,19.8
2023-03-15T10:09:22.000Z,19.8
2023-03-15T10:10:38.000Z,20
2023-03-15T10:11:54.000Z,20.3
2023-03-15T10:13:10.000Z,19.4
2023-03-15T10:14:26.000Z,19.5
2023-03-15T10:15:43.000Z,19.6
2023-03-15T10:16:59.000Z,18.5
2023-03-15T10:18:15.000Z,19.3
2023-03-15T10:19:31.000Z,19.5
2023-03-15T10:20:47.000Z,19.7
2023-03-15T10:22:03.000Z,19.9
2023-03-15T10:23:19.000Z,22.8
2023-03-15T10:24:35.000Z,23.6
2023-03-15T10:25:51.000Z,23.6
2023-03-15T10:27:07.000Z,23.1
2023-03-15T10:28:23.000Z,22.2
2023-03-15T10:29:39.000Z,22.8
2023-03-15T10:30:55.000Z,20.9
2023-03-15T10:32:11.000Z,19.8
2023-03-15T10:33:27.000Z,19.2
2023-03-15T10:34:43.000Z,19.6
2023-03-15T10:35:58.000Z,18.4
2023-03-15T10:38:29.000Z,18
2023-03-15T10:39:44.000Z,19.1
2023-03-15T10:40:59.000Z,19.3
2023-03-15T10:42:15.000Z,19.5
2023-03-15T10:43:32.000Z,19.8
2023-03-15T10:44:48.000Z,20.1
2023-03-15T10:46:04.000Z,20.3
2023-03-15T10:47:20.000Z,20.6
2023-03-15T10:48:36.000Z,21.4
2023-03-15T10:49:52.000Z,22.2
2023-03-15T10:51:08.000Z,21.7
2023-03-15T10:52:25.000Z,21.9
2023-03-15T10:53:41.000Z,21.3
2023-03-15T10:54:57.000Z,22.1
2023-03-15T10:56:13.000Z,23.4
2023-03-15T10:57:28.000Z,24.4
2023-03-15T10:58:44.000Z,24.2
2023-03-15T11:00:00.000Z,25.3
2023-03-15T11:01:16.000Z,24.8
2023-03-15T11:02:33.000Z,24.7
2023-03-15T11:03:49.000Z,25.4
2023-03-15T11:05:05.000Z,24.5
2023-03-15T11:06:20.000Z,25.7
2023-03-15T11:07:36.000Z,26.3
2023-03-15T11:08:51.000Z,26.4
2023-03-15T11:10:06.000Z,25.3
2023-03-15T11:11:23.000Z,25.8
2023-03-15T11:12:39.000Z,27.5
2023-03-15T11:15:11.000Z,29.7
2023-03-15T11:16:27.000Z,29.9
2023-03-15T11:17:43.000Z,31.2
2023-03-15T11:18:59.000Z,32.1
2023-03-15T11:20:15.000Z,33.4
2023-03-15T11:21:32.000Z,33.6
2023-03-15T11:22:48.000Z,33.6
2023-03-15T11:24:04.000Z,34.1
2023-03-15T11:25:20.000Z,33.7
2023-03-15T11:26:35.000Z,34.7
2023-03-15T11:27:51.000Z,35
2023-03-15T11:29:07.000Z,34.1
2023-03-15T11:30:24.000Z,34.4
2023-03-15T11:31:40.000Z,34
2023-03-15T11:32:56.000Z,34.2
2023-03-15T11:34:12.000Z,34.6
2023-03-15T11:35:28.000Z,35.5
2023-03-15T11:36:44.000Z,35.7
2023-03-15T11:38:00.000Z,35.8
2023-03-15T11:39:16.000Z,34.9
2023-03-15T11:40:33.000Z,35.1
2023-03-15T11:41:48.000Z,35.7
2023-03-15T11:43:03.000Z,36.6
2023-03-15T11:44:19.000Z,37.9
2023-03-15T11:45:35.000Z,37.5
2023-03-15T11:46:50.000Z,36.7
2023-03-15T11:48:06.000Z,36.8
2023-03-15T11:49:22.000Z,37.6
2023-03-15T11:50:38.000Z,37.5
2023-03-15T11:51:54.000Z,37
2023-03-15T11:53:10.000Z,37.7
2023-03-15T11:54:26.000Z,37.1
2023-03-15T11:55:42.000Z,37.6
2023-03-15T11:56:58.000Z,37.8
2023-03-15T11:58:15.000Z,38.3
2023-03-15T11:59:31.000Z,38.4
2023-03-15T12:00:47.000Z,37.3
2023-03-15T12:02:03.000Z,38
2023-03-15T12:03:19.000Z,38.2
2023-03-15T12:04:34.000Z,38.9
2023-03-15T12:05:50.000Z,38
2023-03-15T12:07:07.000Z,37.1
2023-03-15T12:08:23.000Z,37.4
2023-03-15T12:09:39.000Z,37.6
2023-03-15T12:10:55.000Z,37.3
2023-03-15T12:12:11.000Z,37.6
2023-03-15T12:13:27.000Z,37.6
2023-03-15T12:14:43.000Z,37.4
2023-03-15T12:15:59.000Z,37.5
2023-03-15T12:17:16.000Z,36.5
2023-03-15T12:18:32.000Z,37.2
2023-03-15T12:19:47.000Z,36.8
2023-03-15T12:21:02.000Z,37.4
2023-03-15T12:23:34.000Z,37.7
2023-03-15T12:24:49.000Z,37.4
2023-03-15T12:26:05.000Z,37.2
2023-03-15T12:27:21.000Z,37.7
2023-03-15T12:28:37.000Z,37.8
2023-03-15T12:29:53.000Z,38.1
2023-03-15T12:31:09.000Z,38.4
2023-03-15T12:32:25.000Z,38.7
2023-03-15T12:33:41.000Z,38.4
2023-03-15T12:34:57.000Z,38.3
2023-03-15T12:36:14.000Z,37.5
2023-03-15T12:37:30.000Z,37.3
2023-03-15T12:38:46.000Z,36.5
2023-03-15T12:40:02.000Z,35.9
2023-03-15T12:41:18.000Z,36.9
2023-03-15T12:42:33.000Z,36.9
2023-03-15T12:43:49.000Z,36.9
2023-03-15T12:45:06.000Z,35
2023-03-15T12:46:22.000Z,34.1
2023-03-15T12:47:38.000Z,34.6
2023-03-15T12:48:54.000Z,34.9
2023-03-15T12:50:10.000Z,34.8
2023-03-15T12:51:25.000Z,35
2023-03-15T12:52:40.000Z,35.1
2023-03-15T12:53:57.000Z,34.4
2023-03-15T12:55:12.000Z,33.5
2023-03-15T12:56:27.000Z,33
2023-03-15T12:57:43.000Z,33.1
2023-03-15T12:58:59.000Z,33.2
2023-03-15T13:00:15.000Z,33.9
2023-03-15T13:01:31.000Z,33.4
2023-03-15T13:02:48.000Z,32.8
2023-03-15T13:04:04.000Z,33.1
2023-03-15T13:05:20.000Z,34
2023-03-15T13:06:36.000Z,34.2
2023-03-15T13:07:52.000Z,34.4
2023-03-15T13:09:08.000Z,34
2023-03-15T13:10:24.000Z,32.8
2023-03-15T13:11:40.000Z,33.2
2023-03-15T13:12:56.000Z,33
2023-03-15T13:14:12.000Z,33.5
2023-03-15T13:15:28.000Z,34.4
2023-03-15T13:16:44.000Z,34.9
2023-03-15T13:18:00.000Z,35.3
2023-03-15T13:19:16.000Z,35
2023-03-15T13:20:32.000Z,34.8
2023-03-15T13:21:48.000Z,35.5
2023-03-15T13:23:03.000Z,34.6
2023-03-15T13:24:19.000Z,34
2023-03-15T13:25:35.000Z,33.9
2023-03-15T13:26:51.000Z,34.4
2023-03-15T13:28:06.000Z,33.9
2023-03-15T13:29:21.000Z,32.6
2023-03-15T13:30:38.000Z,32.3
2023-03-15T13:31:54.000Z,33.1
2023-03-15T13:33:10.000Z,32.6
2023-03-15T13:34:26.000Z,32.7
2023-03-15T13:35:42.000Z,33.3
2023-03-15T13:36:58.000Z,33.2
2023-03-15T13:38:14.000Z,33.5
2023-03-15T13:39:30.000Z,34
2023-03-15T13:40:47.000Z,34.4
2023-03-15T13:42:03.000Z,34.7
2023-03-15T13:43:19.000Z,34.9
2023-03-15T13:44:35.000Z,35.3
2023-03-15T13:47:06.000Z,36.7
2023-03-15T13:48:22.000Z,35.3
2023-03-15T13:49:39.000Z,35.3
2023-03-15T13:50:55.000Z,35.3
2023-03-15T13:52:11.000Z,35.6
2023-03-15T13:54:43.000Z,35.4
2023-03-15T13:55:59.000Z,36.3
2023-03-15T13:57:14.000Z,36.4
2023-03-15T13:58:29.000Z,37
2023-03-15T13:59:45.000Z,36.6
2023-03-15T14:01:00.000Z,35.9
2023-03-15T14:02:16.000Z,35.9
2023-03-15T14:03:32.000Z,36
2023-03-15T14:04:48.000Z,36.4
2023-03-15T14:06:04.000Z,36.9
2023-03-15T14:07:20.000Z,36.7
2023-03-15T14:09:53.000Z,36.5
2023-03-15T14:11:09.000Z,36.5
2023-03-15T14:12:25.000Z,36.7
2023-03-15T14:13:41.000Z,36.6
2023-03-15T14:14:57.000Z,35.9
2023-03-15T14:16:13.000Z,36.3
2023-03-15T14:17:29.000Z,36
2023-03-15T14:18:45.000Z,35.2
2023-03-15T14:20:01.000Z,35.5
2023-03-15T14:21:17.000Z,35.6
2023-03-15T14:22:33.000Z,35.9
2023-03-15T14:23:49.000Z,36.1
2023-03-15T14:25:05.000Z,43.8
2023-03-15T14:26:21.000Z,36.7
2023-03-15T14:27:37.000Z,36.4
2023-03-15T14:28:52.000Z,35.9
2023-03-15T14:30:08.000Z,36.3
2023-03-15T14:31:23.000Z,37
2023-03-15T14:32:38.000Z,37.3
2023-03-15T14:33:54.000Z,37.3
2023-03-15T14:35:10.000Z,38
2023-03-15T14:36:27.000Z,37.8
2023-03-15T14:37:43.216Z,38
2023-03-15T14:38:59.000Z,38
2023-03-15T14:40:15.000Z,37.5
2023-03-15T14:41:31.000Z,37.2
2023-03-15T14:42:47.000Z,37.7
2023-03-15T14:44:03.000Z,37.9
2023-03-15T14:45:20.000Z,37.9
2023-03-15T14:46:36.000Z,37.8
2023-03-15T14:47:52.000Z,37.6
2023-03-15T14:49:07.000Z,37.9
2023-03-15T14:50:23.000Z,37.9
2023-03-15T14:51:39.000Z,38
2023-03-15T14:52:55.000Z,37.1
2023-03-15T14:54:11.000Z,37.4
2023-03-15T14:55:28.000Z,37.4
2023-03-15T14:56:44.000Z,37.6
2023-03-15T14:57:59.000Z,38.5
2023-03-15T14:59:14.000Z,39.2
2023-03-15T15:00:30.000Z,39.1
2023-03-15T15:01:46.000Z,38.9
2023-03-15T15:03:02.000Z,38.9
2023-03-15T15:04:19.000Z,38.6
2023-03-15T15:05:35.000Z,38.5
2023-03-15T15:06:51.000Z,43.6
2023-03-15T15:08:07.000Z,48.3
2023-03-15T15:09:23.000Z,39.6
2023-03-15T15:10:39.000Z,42.9
2023-03-15T15:11:55.000Z,41.3
2023-03-15T15:13:11.000Z,34.8
2023-03-15T15:14:28.000Z,35.1
2023-03-15T15:15:43.000Z,36.1
2023-03-15T15:16:59.000Z,36.5
2023-03-15T15:18:15.000Z,37.1
2023-03-15T15:19:31.000Z,37.6
2023-03-15T15:20:46.000Z,37.8
2023-03-15T15:22:03.000Z,37.8
2023-03-15T15:23:20.000Z,38
2023-03-15T15:24:35.000Z,37.4
2023-03-15T15:25:50.000Z,37.7
2023-03-15T15:27:05.000Z,37.5
2023-03-15T15:28:20.000Z,37.9
2023-03-15T15:29:35.000Z,38.2
2023-03-15T15:30:50.000Z,38.5
2023-03-15T15:32:07.000Z,38.4
2023-03-15T15:33:23.000Z,38.9
2023-03-15T15:34:39.000Z,39.2
2023-03-15T15:35:55.000Z,39.4
2023-03-15T15:37:11.000Z,39.5
2023-03-15T15:38:27.000Z,40.1
2023-03-15T15:39:43.000Z,40.2
2023-03-15T15:41:00.000Z,40.4
2023-03-15T15:42:16.000Z,40.8
2023-03-15T15:43:32.000Z,40.8
2023-03-15T15:44:48.000Z,40.6
2023-03-15T15:46:04.000Z,40.7
2023-03-15T15:47:19.000Z,40.4
2023-03-15T15:48:35.000Z,40.3
2023-03-15T15:49:51.000Z,40.3
2023-03-15T15:51:08.000Z,40.6
2023-03-15T15:52:24.000Z,40.5
2023-03-15T15:53:40.000Z,40.9
2023-03-15T15:56:12.000Z,41.8
2023-03-15T15:57:27.000Z,41.9
2023-03-15T15:58:42.000Z,42.5
2023-03-15T15:59:58.000Z,43.1
2023-03-15T16:01:13.000Z,43.4
2023-03-15T16:02:29.000Z,43.7
2023-03-15T16:03:45.000Z,43.8
2023-03-15T16:05:01.000Z,43.8
2023-03-15T16:06:17.000Z,44.1
2023-03-15T16:07:33.000Z,44.5
2023-03-15T16:08:50.000Z,44.6
2023-03-15T16:10:06.000Z,44.7
2023-03-15T16:11:22.000Z,44.6
2023-03-15T16:12:38.000Z,44.2
2023-03-15T16:13:54.000Z,44.1
2023-03-15T16:15:10.000Z,43.8
2023-03-15T16:16:26.000Z,44.1
2023-03-15T16:17:41.000Z,44.3
2023-03-15T16:18:58.000Z,44.6
2023-03-15T16:20:14.000Z,45
2023-03-15T16:21:30.000Z,45
2023-03-15T16:22:46.000Z,44.9
2023-03-15T16:24:02.000Z,44.8
2023-03-15T16:25:18.000Z,44.7
2023-03-15T16:26:34.000Z,45
2023-03-15T16:27:50.000Z,45.2
2023-03-15T16:29:05.000Z,45.5
2023-03-15T16:30:20.000Z,45.8
2023-03-15T16:31:36.000Z,46
2023-03-15T16:32:51.000Z,46
2023-03-15T16:34:07.000Z,46.3
2023-03-15T16:35:23.000Z,46.6
2023-03-15T16:36:40.000Z,47.3
2023-03-15T16:37:56.000Z,48
2023-03-15T16:39:12.000Z,48.4
2023-03-15T16:40:28.000Z,48.5
2023-03-15T16:41:44.000Z,48
2023-03-15T16:43:00.000Z,48.1
2023-03-15T16:44:16.000Z,48.3
2023-03-15T16:45:32.000Z,48
2023-03-15T16:46:49.000Z,48.3
2023-03-15T16:48:05.000Z,48.4
2023-03-15T16:49:20.000Z,48.5
2023-03-15T16:50:36.000Z,48.8
2023-03-15T16:51:52.000Z,48.8
2023-03-15T16:53:08.000Z,48.3
2023-03-15T16:54:24.000Z,48.6
2023-03-15T16:55:41.000Z,48.4
2023-03-15T16:56:56.000Z,48.3
2023-03-15T16:58:11.000Z,48.5
2023-03-15T16:59:27.000Z,48.9
2023-03-15T17:00:43.000Z,49.2
2023-03-15T17:01:59.000Z,49.2
2023-03-15T17:03:14.000Z,49.5
2023-03-15T17:04:30.000Z,49.6
2023-03-15T17:05:46.000Z,49.7
2023-03-15T17:07:02.000Z,49.7
2023-03-15T17:08:18.000Z,50.2
2023-03-15T17:09:34.000Z,50.3
2023-03-15T17:10:50.000Z,50.4